sensor_id;sensor_type;location;lat;lon;timestamp;pressure;altitude;pressure_sealevel;temperature;humidity
4326;BME280;58429;49.826;10.880;2022-08-19T00:00:49;98074;;;21.53;74.61
4326;BME280;58429;49.826;10.880;2022-08-19T00:01:50;98084;;;21.55;74.72
4326;BME280;58429;49.826;10.880;2022-08-19T00:02:49;98076;;;21.47;74.7
4326;BME280;58429;49.826;10.880;2022-08-19T00:03:49;98079;;;21.44;74.89
4326;BME280;58429;49.826;10.880;2022-08-19T00:04:49;98079;;;21.45;74.97
4326;BME280;58429;49.826;10.880;2022-08-19T00:05:49;98066;;;21.41;74.97
4326;BME280;58429;49.826;10.880;2022-08-19T00:06:50;98061;;;21.41;75.06
4326;BME280;58429;49.826;10.880;2022-08-19T00:07:50;98061;;;21.42;75.21
4326;BME280;58429;49.826;10.880;2022-08-19T00:08:49;98064;;;21.42;74.85
4326;BME280;58429;49.826;10.880;2022-08-19T00:09:49;98056;;;21.4;74.95
4326;BME280;58429;49.826;10.880;2022-08-19T00:10:49;98053;;;21.41;74.91
4326;BME280;58429;49.826;10.880;2022-08-19T00:11:50;98049;;;21.42;74.82
4326;BME280;58429;49.826;10.880;2022-08-19T00:12:49;98052;;;21.42;74.87
4326;BME280;58429;49.826;10.880;2022-08-19T00:13:49;98051;;;21.44;75.1
4326;BME280;58429;49.826;10.880;2022-08-19T00:14:49;98054;;;21.39;75.07
4326;BME280;58429;49.826;10.880;2022-08-19T00:15:49;98051;;;21.41;74.69
4326;BME280;58429;49.826;10.880;2022-08-19T00:16:50;98051;;;21.42;74.79
4326;BME280;58429;49.826;10.880;2022-08-19T00:17:50;98047;;;21.39;74.85
4326;BME280;58429;49.826;10.880;2022-08-19T00:18:49;98052;;;21.4;74.75
4326;BME280;58429;49.826;10.880;2022-08-19T00:19:49;98052;;;21.37;74.93
4326;BME280;58429;49.826;10.880;2022-08-19T00:20:49;98057;;;21.38;74.58
4326;BME280;58429;49.826;10.880;2022-08-19T00:21:49;98057;;;21.39;74.85
4326;BME280;58429;49.826;10.880;2022-08-19T00:22:49;98057;;;21.35;74.71
4326;BME280;58429;49.826;10.880;2022-08-19T00:23:49;98063;;;21.34;74.87
4326;BME280;58429;49.826;10.880;2022-08-19T00:24:49;98070;;;21.34;75.06
4326;BME280;58429;49.826;10.880;2022-08-19T00:25:49;98066;;;21.28;75.1
4326;BME280;58429;49.826;10.880;2022-08-19T00:26:50;98075;;;21.34;75.23
4326;BME280;58429;49.826;10.880;2022-08-19T00:27:49;98069;;;21.3;75.26
4326;BME280;58429;49.826;10.880;2022-08-19T00:28:50;98075;;;21.24;75.22
4326;BME280;58429;49.826;10.880;2022-08-19T00:29:49;98072;;;21.24;75.37
4326;BME280;58429;49.826;10.880;2022-08-19T00:30:49;98064;;;21.16;75.41
4326;BME280;58429;49.826;10.880;2022-08-19T00:31:50;98067;;;21.15;75.55
4326;BME280;58429;49.826;10.880;2022-08-19T00:32:49;98067;;;21.13;75.66
4326;BME280;58429;49.826;10.880;2022-08-19T00:33:50;98059;;;21.1;75.61
4326;BME280;58429;49.826;10.880;2022-08-19T00:34:49;98053;;;21.1;75.66
4326;BME280;58429;49.826;10.880;2022-08-19T00:35:49;98054;;;21.11;75.91
4326;BME280;58429;49.826;10.880;2022-08-19T00:36:49;98052;;;21.12;76.15
4326;BME280;58429;49.826;10.880;2022-08-19T00:37:50;98057;;;21.07;75.95
4326;BME280;58429;49.826;10.880;2022-08-19T00:38:49;98058;;;21.09;75.91
4326;BME280;58429;49.826;10.880;2022-08-19T00:39:50;98052;;;21.07;75.77
4326;BME280;58429;49.826;10.880;2022-08-19T00:40:50;98054;;;21.09;75.89
4326;BME280;58429;49.826;10.880;2022-08-19T00:41:50;98059;;;21.09;75.96
4326;BME280;58429;49.826;10.880;2022-08-19T00:42:49;98058;;;21.07;76.05
4326;BME280;58429;49.826;10.880;2022-08-19T00:43:58;98057;;;21.07;76.03
4326;BME280;58429;49.826;10.880;2022-08-19T00:44:49;98055;;;21.08;76.16
4326;BME280;58429;49.826;10.880;2022-08-19T00:45:49;98051;;;21.06;76.05
4326;BME280;58429;49.826;10.880;2022-08-19T00:46:50;98046;;;21.04;76.01
4326;BME280;58429;49.826;10.880;2022-08-19T00:47:49;98045;;;21.03;76.17
4326;BME280;58429;49.826;10.880;2022-08-19T00:48:49;98036;;;21.06;75.91
4326;BME280;58429;49.826;10.880;2022-08-19T00:49:50;98041;;;21.08;76.28
4326;BME280;58429;49.826;10.880;2022-08-19T00:50:50;98037;;;21.06;75.92
4326;BME280;58429;49.826;10.880;2022-08-19T00:51:51;98037;;;21.06;75.81
4326;BME280;58429;49.826;10.880;2022-08-19T00:52:50;98033;;;21.09;75.73
4326;BME280;58429;49.826;10.880;2022-08-19T00:53:49;98035;;;21.1;75.97
4326;BME280;58429;49.826;10.880;2022-08-19T00:54:50;98041;;;21.07;75.75
4326;BME280;58429;49.826;10.880;2022-08-19T00:55:50;98041;;;21.09;75.69
4326;BME280;58429;49.826;10.880;2022-08-19T00:56:50;98041;;;21.1;75.6
4326;BME280;58429;49.826;10.880;2022-08-19T00:57:52;98044;;;21.12;75.63
4326;BME280;58429;49.826;10.880;2022-08-19T00:58:50;98043;;;21.11;75.7
4326;BME280;58429;49.826;10.880;2022-08-19T00:59:52;98045;;;21.04;75.57
4326;BME280;58429;49.826;10.880;2022-08-19T01:00:50;98046;;;21.05;75.6
4326;BME280;58429;49.826;10.880;2022-08-19T01:01:49;98050;;;21.08;75.46
4326;BME280;58429;49.826;10.880;2022-08-19T01:02:50;98047;;;21.09;75.55
4326;BME280;58429;49.826;10.880;2022-08-19T01:03:50;98040;;;21.06;75.7
4326;BME280;58429;49.826;10.880;2022-08-19T01:04:50;98040;;;21.03;75.79
4326;BME280;58429;49.826;10.880;2022-08-19T01:05:50;98040;;;21;75.83
4326;BME280;58429;49.826;10.880;2022-08-19T01:06:50;98049;;;20.97;75.89
4326;BME280;58429;49.826;10.880;2022-08-19T01:07:50;98053;;;20.97;75.75
4326;BME280;58429;49.826;10.880;2022-08-19T01:08:49;98061;;;20.95;75.74
4326;BME280;58429;49.826;10.880;2022-08-19T01:09:49;98067;;;20.98;75.71
4326;BME280;58429;49.826;10.880;2022-08-19T01:10:52;98065;;;20.95;75.8
4326;BME280;58429;49.826;10.880;2022-08-19T01:11:50;98069;;;20.91;75.92
4326;BME280;58429;49.826;10.880;2022-08-19T01:12:50;98071;;;20.88;75.88
4326;BME280;58429;49.826;10.880;2022-08-19T01:13:50;98069;;;20.89;75.87
4326;BME280;58429;49.826;10.880;2022-08-19T01:14:50;98068;;;20.85;75.99
4326;BME280;58429;49.826;10.880;2022-08-19T01:15:50;98069;;;20.86;76.13
4326;BME280;58429;49.826;10.880;2022-08-19T01:16:50;98070;;;20.86;76.13
4326;BME280;58429;49.826;10.880;2022-08-19T01:17:50;98067;;;20.84;76.04
4326;BME280;58429;49.826;10.880;2022-08-19T01:18:50;98063;;;20.85;75.94
4326;BME280;58429;49.826;10.880;2022-08-19T01:19:49;98064;;;20.84;76.11
4326;BME280;58429;49.826;10.880;2022-08-19T01:20:50;98073;;;20.85;76.16
4326;BME280;58429;49.826;10.880;2022-08-19T01:21:51;98070;;;20.82;76.26
4326;BME280;58429;49.826;10.880;2022-08-19T01:22:51;98069;;;20.81;76.45
4326;BME280;58429;49.826;10.880;2022-08-19T01:23:50;98069;;;20.81;76.49
4326;BME280;58429;49.826;10.880;2022-08-19T01:24:50;98069;;;20.78;76.59
4326;BME280;58429;49.826;10.880;2022-08-19T01:25:50;98071;;;20.79;76.53
4326;BME280;58429;49.826;10.880;2022-08-19T01:26:50;98070;;;20.81;76.59
4326;BME280;58429;49.826;10.880;2022-08-19T01:27:50;98063;;;20.8;76.86
4326;BME280;58429;49.826;10.880;2022-08-19T01:28:50;98065;;;20.79;76.94
4326;BME280;58429;49.826;10.880;2022-08-19T01:29:50;98067;;;20.76;76.94
4326;BME280;58429;49.826;10.880;2022-08-19T01:30:50;98065;;;20.75;76.91
4326;BME280;58429;49.826;10.880;2022-08-19T01:31:50;98071;;;20.74;76.88
4326;BME280;58429;49.826;10.880;2022-08-19T01:32:50;98076;;;20.79;76.66
4326;BME280;58429;49.826;10.880;2022-08-19T01:33:50;98071;;;20.79;76.77
4326;BME280;58429;49.826;10.880;2022-08-19T01:34:50;98079;;;20.76;76.9
4326;BME280;58429;49.826;10.880;2022-08-19T01:35:50;98085;;;20.71;77.07
4326;BME280;58429;49.826;10.880;2022-08-19T01:36:50;98082;;;20.69;77.22
4326;BME280;58429;49.826;10.880;2022-08-19T01:37:51;98086;;;20.71;77.09
4326;BME280;58429;49.826;10.880;2022-08-19T01:38:50;98098;;;20.69;77.11
4326;BME280;58429;49.826;10.880;2022-08-19T01:39:50;98099;;;20.7;77.08
4326;BME280;58429;49.826;10.880;2022-08-19T01:40:50;98103;;;20.68;77.19
4326;BME280;58429;49.826;10.880;2022-08-19T01:41:50;98104;;;20.64;77.24
4326;BME280;58429;49.826;10.880;2022-08-19T01:42:50;98108;;;20.65;77.52
4326;BME280;58429;49.826;10.880;2022-08-19T01:43:50;98106;;;20.61;77.16
4326;BME280;58429;49.826;10.880;2022-08-19T01:44:50;98105;;;20.61;77.39
4326;BME280;58429;49.826;10.880;2022-08-19T01:45:50;98099;;;20.59;77.41
4326;BME280;58429;49.826;10.880;2022-08-19T01:46:50;98101;;;20.55;77.37
4326;BME280;58429;49.826;10.880;2022-08-19T01:47:50;98103;;;20.52;77.31
4326;BME280;58429;49.826;10.880;2022-08-19T01:48:50;98106;;;20.54;77.21
4326;BME280;58429;49.826;10.880;2022-08-19T01:49:50;98104;;;20.55;77.14
4326;BME280;58429;49.826;10.880;2022-08-19T01:50:50;98093;;;20.56;77.09
4326;BME280;58429;49.826;10.880;2022-08-19T01:51:50;98101;;;20.57;77.02
4326;BME280;58429;49.826;10.880;2022-08-19T01:52:50;98099;;;20.58;76.96
4326;BME280;58429;49.826;10.880;2022-08-19T01:53:50;98101;;;20.59;77.17
4326;BME280;58429;49.826;10.880;2022-08-19T01:54:50;98101;;;20.59;77.43
4326;BME280;58429;49.826;10.880;2022-08-19T01:55:50;98107;;;20.53;77.63
4326;BME280;58429;49.826;10.880;2022-08-19T01:56:50;98103;;;20.49;77.55
4326;BME280;58429;49.826;10.880;2022-08-19T01:57:50;98104;;;20.51;77.71
4326;BME280;58429;49.826;10.880;2022-08-19T01:58:51;98106;;;20.43;77.61
4326;BME280;58429;49.826;10.880;2022-08-19T01:59:50;98106;;;20.47;77.67
4326;BME280;58429;49.826;10.880;2022-08-19T02:00:50;98103;;;20.45;77.66
4326;BME280;58429;49.826;10.880;2022-08-19T02:01:50;98102;;;20.42;77.54
4326;BME280;58429;49.826;10.880;2022-08-19T02:02:50;98108;;;20.53;77.52
4326;BME280;58429;49.826;10.880;2022-08-19T02:03:50;98111;;;20.53;77.68
4326;BME280;58429;49.826;10.880;2022-08-19T02:04:50;98116;;;20.47;77.75
4326;BME280;58429;49.826;10.880;2022-08-19T02:05:53;98115;;;20.5;77.63
4326;BME280;58429;49.826;10.880;2022-08-19T02:06:50;98123;;;20.52;77.61
4326;BME280;58429;49.826;10.880;2022-08-19T02:07:50;98124;;;20.5;77.66
4326;BME280;58429;49.826;10.880;2022-08-19T02:08:50;98125;;;20.47;77.72
4326;BME280;58429;49.826;10.880;2022-08-19T02:09:50;98123;;;20.48;77.8
4326;BME280;58429;49.826;10.880;2022-08-19T02:10:50;98125;;;20.49;77.81
4326;BME280;58429;49.826;10.880;2022-08-19T02:11:50;98122;;;20.53;77.87
4326;BME280;58429;49.826;10.880;2022-08-19T02:12:50;98123;;;20.51;77.8
4326;BME280;58429;49.826;10.880;2022-08-19T02:13:50;98114;;;20.54;77.74
4326;BME280;58429;49.826;10.880;2022-08-19T02:14:50;98117;;;20.57;78.09
4326;BME280;58429;49.826;10.880;2022-08-19T02:15:50;98121;;;20.53;78.21
4326;BME280;58429;49.826;10.880;2022-08-19T02:16:50;98122;;;20.52;78.32
4326;BME280;58429;49.826;10.880;2022-08-19T02:17:50;98120;;;20.52;78.36
4326;BME280;58429;49.826;10.880;2022-08-19T02:18:50;98119;;;20.57;78.54
4326;BME280;58429;49.826;10.880;2022-08-19T02:19:50;98122;;;20.53;78.5
4326;BME280;58429;49.826;10.880;2022-08-19T02:20:50;98114;;;20.52;78.53
4326;BME280;58429;49.826;10.880;2022-08-19T02:21:50;98114;;;20.48;78.6
4326;BME280;58429;49.826;10.880;2022-08-19T02:22:50;98109;;;20.49;78.54
4326;BME280;58429;49.826;10.880;2022-08-19T02:23:50;98106;;;20.5;78.5
4326;BME280;58429;49.826;10.880;2022-08-19T02:24:50;98105;;;20.52;78.72
4326;BME280;58429;49.826;10.880;2022-08-19T02:25:50;98102;;;20.53;78.68
4326;BME280;58429;49.826;10.880;2022-08-19T02:26:50;98097;;;20.56;78.77
4326;BME280;58429;49.826;10.880;2022-08-19T02:27:50;98105;;;20.54;78.81
4326;BME280;58429;49.826;10.880;2022-08-19T02:28:51;98104;;;20.55;78.89
4326;BME280;58429;49.826;10.880;2022-08-19T02:29:50;98104;;;20.53;79.04
4326;BME280;58429;49.826;10.880;2022-08-19T02:30:50;98110;;;20.54;78.89
4326;BME280;58429;49.826;10.880;2022-08-19T02:31:50;98107;;;20.55;78.65
4326;BME280;58429;49.826;10.880;2022-08-19T02:32:50;98120;;;20.56;78.57
4326;BME280;58429;49.826;10.880;2022-08-19T02:33:50;98119;;;20.56;78.59
4326;BME280;58429;49.826;10.880;2022-08-19T02:34:50;98128;;;20.55;78.55
4326;BME280;58429;49.826;10.880;2022-08-19T02:35:50;98127;;;20.52;78.53
4326;BME280;58429;49.826;10.880;2022-08-19T02:36:50;98133;;;20.48;78.7
4326;BME280;58429;49.826;10.880;2022-08-19T02:37:50;98130;;;20.48;78.68
4326;BME280;58429;49.826;10.880;2022-08-19T02:38:50;98141;;;20.48;78.56
4326;BME280;58429;49.826;10.880;2022-08-19T02:39:50;98136;;;20.49;78.72
4326;BME280;58429;49.826;10.880;2022-08-19T02:40:50;98142;;;20.48;78.69
4326;BME280;58429;49.826;10.880;2022-08-19T02:41:50;98141;;;20.46;78.7
4326;BME280;58429;49.826;10.880;2022-08-19T02:42:50;98152;;;20.47;78.56
4326;BME280;58429;49.826;10.880;2022-08-19T02:43:50;98148;;;20.48;78.52
4326;BME280;58429;49.826;10.880;2022-08-19T02:44:50;98146;;;20.44;78.67
4326;BME280;58429;49.826;10.880;2022-08-19T02:45:50;98144;;;20.47;78.68
4326;BME280;58429;49.826;10.880;2022-08-19T02:46:50;98144;;;20.47;78.61
4326;BME280;58429;49.826;10.880;2022-08-19T02:47:50;98147;;;20.42;78.65
4326;BME280;58429;49.826;10.880;2022-08-19T02:48:50;98142;;;20.44;78.71
4326;BME280;58429;49.826;10.880;2022-08-19T02:49:50;98144;;;20.46;78.83
4326;BME280;58429;49.826;10.880;2022-08-19T02:50:50;98149;;;20.41;78.9
4326;BME280;58429;49.826;10.880;2022-08-19T02:51:50;98136;;;20.49;78.82
4326;BME280;58429;49.826;10.880;2022-08-19T02:52:50;98144;;;20.49;78.89
4326;BME280;58429;49.826;10.880;2022-08-19T02:53:50;98143;;;20.47;79.11
4326;BME280;58429;49.826;10.880;2022-08-19T02:54:50;98150;;;20.43;79.25
4326;BME280;58429;49.826;10.880;2022-08-19T02:55:50;98146;;;20.47;79.38
4326;BME280;58429;49.826;10.880;2022-08-19T02:56:50;98144;;;20.44;79.31
4326;BME280;58429;49.826;10.880;2022-08-19T02:57:50;98145;;;20.43;79.54
4326;BME280;58429;49.826;10.880;2022-08-19T02:58:50;98149;;;20.45;79.51
4326;BME280;58429;49.826;10.880;2022-08-19T02:59:50;98160;;;20.39;79.49
4326;BME280;58429;49.826;10.880;2022-08-19T03:00:51;98158;;;20.43;79.36
4326;BME280;58429;49.826;10.880;2022-08-19T03:01:50;98163;;;20.42;79.39
4326;BME280;58429;49.826;10.880;2022-08-19T03:02:50;98169;;;20.4;79.47
4326;BME280;58429;49.826;10.880;2022-08-19T03:03:50;98172;;;20.41;79.5
4326;BME280;58429;49.826;10.880;2022-08-19T03:04:50;98169;;;20.37;79.57
4326;BME280;58429;49.826;10.880;2022-08-19T03:05:50;98166;;;20.41;79.66
4326;BME280;58429;49.826;10.880;2022-08-19T03:06:50;98170;;;20.38;79.61
4326;BME280;58429;49.826;10.880;2022-08-19T03:07:50;98167;;;20.38;79.6
4326;BME280;58429;49.826;10.880;2022-08-19T03:08:50;98168;;;20.36;79.47
4326;BME280;58429;49.826;10.880;2022-08-19T03:09:50;98166;;;20.4;79.6
4326;BME280;58429;49.826;10.880;2022-08-19T03:10:50;98163;;;20.37;79.66
4326;BME280;58429;49.826;10.880;2022-08-19T03:11:50;98158;;;20.37;79.74
4326;BME280;58429;49.826;10.880;2022-08-19T03:12:50;98155;;;20.38;79.65
4326;BME280;58429;49.826;10.880;2022-08-19T03:13:50;98152;;;20.35;79.86
4326;BME280;58429;49.826;10.880;2022-08-19T03:14:50;98155;;;20.36;79.44
4326;BME280;58429;49.826;10.880;2022-08-19T03:15:50;98153;;;20.35;79.4
4326;BME280;58429;49.826;10.880;2022-08-19T03:16:50;98145;;;20.37;79.44
4326;BME280;58429;49.826;10.880;2022-08-19T03:17:50;98147;;;20.36;79.49
4326;BME280;58429;49.826;10.880;2022-08-19T03:18:50;98151;;;20.36;79.43
4326;BME280;58429;49.826;10.880;2022-08-19T03:19:50;98154;;;20.37;79.59
4326;BME280;58429;49.826;10.880;2022-08-19T03:20:50;98149;;;20.34;79.52
4326;BME280;58429;49.826;10.880;2022-08-19T03:21:50;98152;;;20.35;79.58
4326;BME280;58429;49.826;10.880;2022-08-19T03:22:50;98162;;;20.35;79.71
4326;BME280;58429;49.826;10.880;2022-08-19T03:23:53;98161;;;20.36;79.58
4326;BME280;58429;49.826;10.880;2022-08-19T03:24:50;98156;;;20.35;79.58
4326;BME280;58429;49.826;10.880;2022-08-19T03:25:50;98154;;;20.36;79.56
4326;BME280;58429;49.826;10.880;2022-08-19T03:26:51;98146;;;20.35;79.7
4326;BME280;58429;49.826;10.880;2022-08-19T03:27:50;98153;;;20.36;79.68
4326;BME280;58429;49.826;10.880;2022-08-19T03:28:50;98150;;;20.34;79.72
4326;BME280;58429;49.826;10.880;2022-08-19T03:29:50;98142;;;20.35;79.89
4326;BME280;58429;49.826;10.880;2022-08-19T03:30:57;98135;;;20.34;79.69
4326;BME280;58429;49.826;10.880;2022-08-19T03:31:50;98139;;;20.34;79.75
4326;BME280;58429;49.826;10.880;2022-08-19T03:32:50;98141;;;20.34;79.91
4326;BME280;58429;49.826;10.880;2022-08-19T03:33:50;98136;;;20.34;79.91
4326;BME280;58429;49.826;10.880;2022-08-19T03:34:50;98141;;;20.35;79.99
4326;BME280;58429;49.826;10.880;2022-08-19T03:35:59;98142;;;20.35;79.89
4326;BME280;58429;49.826;10.880;2022-08-19T03:36:50;98137;;;20.34;80.05
4326;BME280;58429;49.826;10.880;2022-08-19T03:37:50;98135;;;20.34;80
4326;BME280;58429;49.826;10.880;2022-08-19T03:38:51;98133;;;20.35;79.85
4326;BME280;58429;49.826;10.880;2022-08-19T03:39:50;98131;;;20.32;80.06
4326;BME280;58429;49.826;10.880;2022-08-19T03:40:50;98130;;;20.33;80.1
4326;BME280;58429;49.826;10.880;2022-08-19T03:41:50;98131;;;20.34;80.12
4326;BME280;58429;49.826;10.880;2022-08-19T03:42:50;98124;;;20.31;80.25
4326;BME280;58429;49.826;10.880;2022-08-19T03:43:50;98126;;;20.33;80.29
4326;BME280;58429;49.826;10.880;2022-08-19T03:44:50;98125;;;20.32;80.25
4326;BME280;58429;49.826;10.880;2022-08-19T03:45:59;98116;;;20.34;80.31
4326;BME280;58429;49.826;10.880;2022-08-19T03:46:53;98118;;;20.34;80.26
4326;BME280;58429;49.826;10.880;2022-08-19T03:47:50;98114;;;20.32;80.22
4326;BME280;58429;49.826;10.880;2022-08-19T03:48:51;98108;;;20.34;79.94
4326;BME280;58429;49.826;10.880;2022-08-19T03:49:50;98112;;;20.32;79.99
4326;BME280;58429;49.826;10.880;2022-08-19T03:50:50;98109;;;20.32;79.96
4326;BME280;58429;49.826;10.880;2022-08-19T03:51:50;98112;;;20.31;79.93
4326;BME280;58429;49.826;10.880;2022-08-19T03:52:50;98109;;;20.3;79.82
4326;BME280;58429;49.826;10.880;2022-08-19T03:53:50;98109;;;20.27;79.89
4326;BME280;58429;49.826;10.880;2022-08-19T03:54:50;98110;;;20.3;79.72
4326;BME280;58429;49.826;10.880;2022-08-19T03:55:50;98109;;;20.22;79.93
4326;BME280;58429;49.826;10.880;2022-08-19T03:56:51;98108;;;20.18;79.87
4326;BME280;58429;49.826;10.880;2022-08-19T03:57:50;98107;;;20.21;79.99
4326;BME280;58429;49.826;10.880;2022-08-19T03:58:50;98110;;;20.13;79.98
4326;BME280;58429;49.826;10.880;2022-08-19T03:59:50;98107;;;20.17;80.27
4326;BME280;58429;49.826;10.880;2022-08-19T04:00:50;98112;;;20.14;80.42
4326;BME280;58429;49.826;10.880;2022-08-19T04:01:50;98110;;;20.12;80.39
4326;BME280;58429;49.826;10.880;2022-08-19T04:02:50;98112;;;20.16;80.58
4326;BME280;58429;49.826;10.880;2022-08-19T04:03:50;98118;;;20.12;80.61
4326;BME280;58429;49.826;10.880;2022-08-19T04:04:52;98118;;;20.11;80.63
4326;BME280;58429;49.826;10.880;2022-08-19T04:05:50;98119;;;20.12;80.7
4326;BME280;58429;49.826;10.880;2022-08-19T04:06:50;98111;;;20.14;80.86
4326;BME280;58429;49.826;10.880;2022-08-19T04:07:50;98119;;;20.1;80.88
4326;BME280;58429;49.826;10.880;2022-08-19T04:08:51;98124;;;20.14;81.7
4326;BME280;58429;49.826;10.880;2022-08-19T04:09:50;98116;;;20.09;81.53
4326;BME280;58429;49.826;10.880;2022-08-19T04:10:50;98114;;;20.06;81.55
4326;BME280;58429;49.826;10.880;2022-08-19T04:11:50;98117;;;20.05;81.59
4326;BME280;58429;49.826;10.880;2022-08-19T04:12:50;98111;;;20.06;81.44
4326;BME280;58429;49.826;10.880;2022-08-19T04:13:50;98106;;;20.05;81.65
4326;BME280;58429;49.826;10.880;2022-08-19T04:14:50;98096;;;20.07;81.76
4326;BME280;58429;49.826;10.880;2022-08-19T04:15:50;98099;;;20.05;81.85
4326;BME280;58429;49.826;10.880;2022-08-19T04:16:50;98100;;;20.01;82.26
4326;BME280;58429;49.826;10.880;2022-08-19T04:17:50;98099;;;19.94;82.11
4326;BME280;58429;49.826;10.880;2022-08-19T04:18:50;98096;;;19.96;82.1
4326;BME280;58429;49.826;10.880;2022-08-19T04:19:50;98094;;;19.97;81.99
4326;BME280;58429;49.826;10.880;2022-08-19T04:20:50;98092;;;19.96;82.31
4326;BME280;58429;49.826;10.880;2022-08-19T04:21:51;98090;;;19.97;82.14
4326;BME280;58429;49.826;10.880;2022-08-19T04:22:50;98092;;;19.98;82.2
4326;BME280;58429;49.826;10.880;2022-08-19T04:23:50;98093;;;19.94;82
4326;BME280;58429;49.826;10.880;2022-08-19T04:24:50;98094;;;19.94;81.93
4326;BME280;58429;49.826;10.880;2022-08-19T04:25:50;98092;;;19.95;81.96
4326;BME280;58429;49.826;10.880;2022-08-19T04:26:50;98100;;;19.94;81.91
4326;BME280;58429;49.826;10.880;2022-08-19T04:27:50;98090;;;19.94;82
4326;BME280;58429;49.826;10.880;2022-08-19T04:28:50;98093;;;19.98;81.94
4326;BME280;58429;49.826;10.880;2022-08-19T04:29:50;98093;;;20.01;81.91
4326;BME280;58429;49.826;10.880;2022-08-19T04:30:51;98099;;;20.01;82.04
4326;BME280;58429;49.826;10.880;2022-08-19T04:31:50;98091;;;19.99;81.98
4326;BME280;58429;49.826;10.880;2022-08-19T04:32:50;98099;;;19.97;82.09
4326;BME280;58429;49.826;10.880;2022-08-19T04:33:50;98108;;;19.97;81.98
4326;BME280;58429;49.826;10.880;2022-08-19T04:34:50;98106;;;19.96;81.9
4326;BME280;58429;49.826;10.880;2022-08-19T04:35:51;98113;;;19.99;81.88
4326;BME280;58429;49.826;10.880;2022-08-19T04:36:51;98119;;;19.99;82.13
4326;BME280;58429;49.826;10.880;2022-08-19T04:37:50;98120;;;19.98;81.97
4326;BME280;58429;49.826;10.880;2022-08-19T04:38:52;98128;;;20;81.9
4326;BME280;58429;49.826;10.880;2022-08-19T04:39:50;98125;;;19.97;81.7
4326;BME280;58429;49.826;10.880;2022-08-19T04:40:51;98123;;;19.97;81.91
4326;BME280;58429;49.826;10.880;2022-08-19T04:41:50;98126;;;20.01;81.83
4326;BME280;58429;49.826;10.880;2022-08-19T04:42:50;98120;;;19.96;81.77
4326;BME280;58429;49.826;10.880;2022-08-19T04:43:50;98125;;;20.02;81.75
4326;BME280;58429;49.826;10.880;2022-08-19T04:44:50;98129;;;20.05;81.81
4326;BME280;58429;49.826;10.880;2022-08-19T04:45:50;98132;;;20.04;81.89
4326;BME280;58429;49.826;10.880;2022-08-19T04:46:50;98132;;;20.03;82.05
4326;BME280;58429;49.826;10.880;2022-08-19T04:47:53;98124;;;20.02;82.05
4326;BME280;58429;49.826;10.880;2022-08-19T04:48:50;98123;;;20.03;82.11
4326;BME280;58429;49.826;10.880;2022-08-19T04:49:50;98123;;;20.09;82.1
4326;BME280;58429;49.826;10.880;2022-08-19T04:50:50;98123;;;20.07;82.03
4326;BME280;58429;49.826;10.880;2022-08-19T04:51:51;98124;;;20.08;81.84
4326;BME280;58429;49.826;10.880;2022-08-19T04:52:51;98125;;;20.12;81.89
4326;BME280;58429;49.826;10.880;2022-08-19T04:53:50;98128;;;20.09;81.96
4326;BME280;58429;49.826;10.880;2022-08-19T04:54:50;98135;;;20.09;81.75
4326;BME280;58429;49.826;10.880;2022-08-19T04:55:50;98128;;;20.09;81.86
4326;BME280;58429;49.826;10.880;2022-08-19T04:56:50;98131;;;20.09;81.88
4326;BME280;58429;49.826;10.880;2022-08-19T04:57:50;98137;;;20.1;81.75
4326;BME280;58429;49.826;10.880;2022-08-19T04:58:50;98135;;;20.1;81.79
4326;BME280;58429;49.826;10.880;2022-08-19T04:59:53;98136;;;20.06;81.72
4326;BME280;58429;49.826;10.880;2022-08-19T05:00:50;98135;;;20.12;81.71
4326;BME280;58429;49.826;10.880;2022-08-19T05:01:50;98142;;;20.12;81.87
4326;BME280;58429;49.826;10.880;2022-08-19T05:02:50;98147;;;20.1;81.99
4326;BME280;58429;49.826;10.880;2022-08-19T05:03:50;98148;;;20.12;81.94
4326;BME280;58429;49.826;10.880;2022-08-19T05:04:50;98154;;;20.11;81.93
4326;BME280;58429;49.826;10.880;2022-08-19T05:05:50;98159;;;20.08;81.95
4326;BME280;58429;49.826;10.880;2022-08-19T05:06:50;98165;;;20.1;81.95
4326;BME280;58429;49.826;10.880;2022-08-19T05:07:50;98172;;;20.1;81.83
4326;BME280;58429;49.826;10.880;2022-08-19T05:08:50;98170;;;20.12;81.75
4326;BME280;58429;49.826;10.880;2022-08-19T05:09:50;98174;;;20.1;81.65
4326;BME280;58429;49.826;10.880;2022-08-19T05:10:50;98167;;;20.09;81.6
4326;BME280;58429;49.826;10.880;2022-08-19T05:11:50;98174;;;20.1;81.64
4326;BME280;58429;49.826;10.880;2022-08-19T05:12:50;98175;;;20.12;81.58
4326;BME280;58429;49.826;10.880;2022-08-19T05:13:50;98177;;;20.1;81.62
4326;BME280;58429;49.826;10.880;2022-08-19T05:14:50;98176;;;20.12;81.7
4326;BME280;58429;49.826;10.880;2022-08-19T05:15:53;98183;;;20.11;81.62
4326;BME280;58429;49.826;10.880;2022-08-19T05:16:50;98180;;;20.12;81.71
4326;BME280;58429;49.826;10.880;2022-08-19T05:17:50;98175;;;20.11;81.75
4326;BME280;58429;49.826;10.880;2022-08-19T05:18:50;98183;;;20.11;81.74
4326;BME280;58429;49.826;10.880;2022-08-19T05:19:50;98187;;;20.17;81.69
4326;BME280;58429;49.826;10.880;2022-08-19T05:20:50;98187;;;20.16;81.73
4326;BME280;58429;49.826;10.880;2022-08-19T05:21:50;98185;;;20.13;81.86
4326;BME280;58429;49.826;10.880;2022-08-19T05:22:50;98187;;;20.1;82.01
4326;BME280;58429;49.826;10.880;2022-08-19T05:23:50;98194;;;20.13;82.04
4326;BME280;58429;49.826;10.880;2022-08-19T05:24:50;98186;;;20.11;82.08
4326;BME280;58429;49.826;10.880;2022-08-19T05:25:50;98194;;;20.12;81.9
4326;BME280;58429;49.826;10.880;2022-08-19T05:26:51;98196;;;20.15;81.81
4326;BME280;58429;49.826;10.880;2022-08-19T05:27:50;98197;;;20.17;81.76
4326;BME280;58429;49.826;10.880;2022-08-19T05:28:50;98196;;;20.17;81.71
4326;BME280;58429;49.826;10.880;2022-08-19T05:29:50;98202;;;20.11;81.84
4326;BME280;58429;49.826;10.880;2022-08-19T05:30:50;98209;;;20.09;81.91
4326;BME280;58429;49.826;10.880;2022-08-19T05:31:50;98199;;;20.09;81.93